sensor_id;sensor_type;location;lat;lon;timestamp;pressure;altitude;pressure_sealevel;temperature;humidity
55656;BME280;41530;52.382;5.270;2023-03-01T00:01:23;103495.88;;;13.93;47.62
55656;BME280;41530;52.382;5.270;2023-03-01T00:03:50;103497.72;;;13.91;47.93
55656;BME280;41530;52.382;5.270;2023-03-01T00:06:18;103484.50;;;13.91;47.81
55656;BME280;41530;52.382;5.270;2023-03-01T00:08:45;103496.84;;;13.90;47.88
55656;BME280;41530;52.382;5.270;2023-03-01T00:11:14;103494.34;;;13.87;47.86
55656;BME280;41530;52.382;5.270;2023-03-01T00:13:42;103482.03;;;13.86;47.66
55656;BME280;41530;52.382;5.270;2023-03-01T00:16:14;103487.31;;;13.86;47.66
55656;BME280;41530;52.382;5.270;2023-03-01T00:18:41;103482.16;;;13.83;47.75
55656;BME280;41530;52.382;5.270;2023-03-01T00:21:08;103479.59;;;13.82;47.85
55656;BME280;41530;52.382;5.270;2023-03-01T00:23:35;103475.28;;;13.79;47.53
55656;BME280;41530;52.382;5.270;2023-03-01T00:26:06;103481.31;;;13.83;47.52
55656;BME280;41530;52.382;5.270;2023-03-01T00:28:33;103472.69;;;13.78;47.63
55656;BME280;41530;52.382;5.270;2023-03-01T00:31:04;103475.41;;;13.76;47.59
55656;BME280;41530;52.382;5.270;2023-03-01T00:33:31;103466.59;;;13.76;47.56
55656;BME280;41530;52.382;5.270;2023-03-01T00:35:58;103468.31;;;13.77;47.56
55656;BME280;41530;52.382;5.270;2023-03-01T00:38:25;103467.41;;;13.78;47.48
55656;BME280;41530;52.382;5.270;2023-03-01T00:40:52;103453.56;;;13.71;47.41
55656;BME280;41530;52.382;5.270;2023-03-01T00:43:19;103464.16;;;13.71;47.56
55656;BME280;41530;52.382;5.270;2023-03-01T00:45:45;103446.81;;;13.64;47.66
55656;BME280;41530;52.382;5.270;2023-03-01T00:48:12;103463.22;;;13.72;47.29
55656;BME280;41530;52.382;5.270;2023-03-01T00:50:39;103462.44;;;13.70;47.49
55656;BME280;41530;52.382;5.270;2023-03-01T00:53:05;103455.59;;;13.65;47.47
55656;BME280;41530;52.382;5.270;2023-03-01T00:55:32;103466.88;;;13.70;47.43
55656;BME280;41530;52.382;5.270;2023-03-01T00:57:58;103452.94;;;13.65;47.52
55656;BME280;41530;52.382;5.270;2023-03-01T01:00:25;103453.00;;;13.63;47.54
55656;BME280;41530;52.382;5.270;2023-03-01T01:02:54;103446.91;;;13.61;47.21
55656;BME280;41530;52.382;5.270;2023-03-01T01:05:20;103451.28;;;13.62;47.32
55656;BME280;41530;52.382;5.270;2023-03-01T01:07:48;103453.94;;;13.62;47.28
55656;BME280;41530;52.382;5.270;2023-03-01T01:10:14;103449.56;;;13.61;47.32
55656;BME280;41530;52.382;5.270;2023-03-01T01:12:45;103449.56;;;13.61;47.24
55656;BME280;41530;52.382;5.270;2023-03-01T01:15:12;103443.56;;;13.58;47.22
55656;BME280;41530;52.382;5.270;2023-03-01T01:17:40;103434.94;;;13.52;47.36
55656;BME280;41530;52.382;5.270;2023-03-01T01:20:07;103444.53;;;13.55;47.29
55656;BME280;41530;52.382;5.270;2023-03-01T01:22:34;103439.25;;;13.55;47.16
55656;BME280;41530;52.382;5.270;2023-03-01T01:25:01;103427.19;;;13.48;47.10
55656;BME280;41530;52.382;5.270;2023-03-01T01:27:29;103428.03;;;13.48;47.24
55656;BME280;41530;52.382;5.270;2023-03-01T01:29:55;103437.53;;;13.54;47.34
55656;BME280;41530;52.382;5.270;2023-03-01T01:32:22;103434.03;;;13.53;47.21
55656;BME280;41530;52.382;5.270;2023-03-01T01:34:52;103433.22;;;13.51;46.91
55656;BME280;41530;52.382;5.270;2023-03-01T01:37:19;103427.13;;;13.49;47.06
55656;BME280;41530;52.382;5.270;2023-03-01T01:39:45;103431.50;;;13.50;46.96
55656;BME280;41530;52.382;5.270;2023-03-01T01:42:16;103422.00;;;13.45;46.85
55656;BME280;41530;52.382;5.270;2023-03-01T01:44:47;103426.31;;;13.47;46.83
55656;BME280;41530;52.382;5.270;2023-03-01T01:47:18;103403.72;;;13.40;46.76
55656;BME280;41530;52.382;5.270;2023-03-01T01:49:53;103408.78;;;13.45;46.78
55656;BME280;41530;52.382;5.270;2023-03-01T01:52:39;103406.34;;;13.40;46.70
55656;BME280;41530;52.382;5.270;2023-03-01T01:55:09;103403.78;;;13.39;46.70
55656;BME280;41530;52.382;5.270;2023-03-01T01:57:44;103404.69;;;13.38;46.88
55656;BME280;41530;52.382;5.270;2023-03-01T02:00:16;103415.16;;;13.41;46.58
55656;BME280;41530;52.382;5.270;2023-03-01T02:02:44;103417.00;;;13.39;46.95
55656;BME280;41530;52.382;5.270;2023-03-01T02:07:39;103407.50;;;13.33;46.87
55656;BME280;41530;52.382;5.270;2023-03-01T02:10:08;103406.59;;;13.34;46.71
55656;BME280;41530;52.382;5.270;2023-03-01T02:12:35;103405.78;;;13.32;47.06
55656;BME280;41530;52.382;5.270;2023-03-01T02:15:04;103409.22;;;13.34;46.79
55656;BME280;41530;52.382;5.270;2023-03-01T02:17:32;103407.50;;;13.33;46.70
55656;BME280;41530;52.382;5.270;2023-03-01T02:23:00;103397.09;;;13.30;46.84
55656;BME280;41530;52.382;5.270;2023-03-01T02:30:32;103385.88;;;13.24;46.79
55656;BME280;41530;52.382;5.270;2023-03-01T02:40:22;103298.16;;;12.70;46.26
55656;BME280;41530;52.382;5.270;2023-03-01T02:43:54;103392.03;;;13.24;46.17
55656;BME280;41530;52.382;5.270;2023-03-01T02:51:03;103387.66;;;13.23;46.11
55656;BME280;41530;52.382;5.270;2023-03-01T02:57:49;103373.19;;;13.32;46.47
55656;BME280;41530;52.382;5.270;2023-03-01T03:00:23;103366.47;;;13.25;46.36
55656;BME280;41530;52.382;5.270;2023-03-01T03:02:53;103367.44;;;13.22;46.28
55656;BME280;41530;52.382;5.270;2023-03-01T03:05:24;103374.44;;;13.23;46.21
55656;BME280;41530;52.382;5.270;2023-03-01T03:07:51;103374.44;;;13.23;46.17
55656;BME280;41530;52.382;5.270;2023-03-01T03:10:29;103364.72;;;13.24;46.09
55656;BME280;41530;52.382;5.270;2023-03-01T03:12:59;103366.56;;;13.22;46.42
55656;BME280;41530;52.382;5.270;2023-03-01T03:15:26;103357.78;;;13.21;46.27
55656;BME280;41530;52.382;5.270;2023-03-01T03:17:53;103357.84;;;13.19;46.31
55656;BME280;41530;52.382;5.270;2023-03-01T03:20:25;103354.34;;;13.19;45.94
55656;BME280;41530;52.382;5.270;2023-03-01T03:22:53;103354.34;;;13.19;46.24
55656;BME280;41530;52.382;5.270;2023-03-01T03:25:21;103349.91;;;13.19;46.26
55656;BME280;41530;52.382;5.270;2023-03-01T03:27:50;103351.69;;;13.19;46.10
55656;BME280;41530;52.382;5.270;2023-03-01T03:30:28;103350.84;;;13.18;46.11
55656;BME280;41530;52.382;5.270;2023-03-01T03:32:57;103342.06;;;13.18;46.06
55656;BME280;41530;52.382;5.270;2023-03-01T03:35:29;103339.44;;;13.18;46.14
55656;BME280;41530;52.382;5.270;2023-03-01T03:37:58;103335.06;;;13.17;45.90
55656;BME280;41530;52.382;5.270;2023-03-01T03:40:39;103330.63;;;13.17;45.53
55656;BME280;41530;52.382;5.270;2023-03-01T03:43:08;103327.13;;;13.17;45.88
55656;BME280;41530;52.382;5.270;2023-03-01T03:45:35;103335.84;;;13.19;45.76
55656;BME280;41530;52.382;5.270;2023-03-01T03:48:05;103330.50;;;13.20;45.83
55656;BME280;41530;52.382;5.270;2023-03-01T03:50:32;103330.50;;;13.20;45.51
55656;BME280;41530;52.382;5.270;2023-03-01T03:53:04;103337.50;;;13.22;45.20
55656;BME280;41530;52.382;5.270;2023-03-01T03:55:32;103337.50;;;13.22;45.60
55656;BME280;41530;52.382;5.270;2023-03-01T03:58:02;103339.22;;;13.23;45.41
55656;BME280;41530;52.382;5.270;2023-03-01T04:00:41;103334.84;;;13.22;45.07
55656;BME280;41530;52.382;5.270;2023-03-01T04:03:09;103331.34;;;13.21;45.48
55656;BME280;41530;52.382;5.270;2023-03-01T04:05:37;103332.22;;;13.22;45.81
55656;BME280;41530;52.382;5.270;2023-03-01T04:08:04;103326.88;;;13.23;45.79
55656;BME280;41530;52.382;5.270;2023-03-01T04:10:37;103331.22;;;13.24;45.71
55656;BME280;41530;52.382;5.270;2023-03-01T04:13:06;103332.16;;;13.23;45.34
55656;BME280;41530;52.382;5.270;2023-03-01T04:15:33;103335.59;;;13.25;45.68
55656;BME280;41530;52.382;5.270;2023-03-01T04:18:00;103331.22;;;13.24;45.63
55656;BME280;41530;52.382;5.270;2023-03-01T04:20:29;103331.28;;;13.23;45.19
55656;BME280;41530;52.382;5.270;2023-03-01T04:22:59;103344.44;;;13.24;45.41
55656;BME280;41530;52.382;5.270;2023-03-01T04:25:41;103339.22;;;13.23;45.16
55656;BME280;41530;52.382;5.270;2023-03-01T04:28:09;103335.72;;;13.22;45.07
55656;BME280;41530;52.382;5.270;2023-03-01T04:30:37;103333.94;;;13.23;45.04
55656;BME280;41530;52.382;5.270;2023-03-01T04:33:05;103312.84;;;13.21;45.22
55656;BME280;41530;52.382;5.270;2023-03-01T04:35:32;103318.13;;;13.21;45.04
55656;BME280;41530;52.382;5.270;2023-03-01T04:38:01;103329.56;;;13.22;44.90
55656;BME280;41530;52.382;5.270;2023-03-01T04:40:27;103332.28;;;13.20;45.01
55656;BME280;41530;52.382;5.270;2023-03-01T04:42:54;103325.25;;;13.19;44.89
55656;BME280;41530;52.382;5.270;2023-03-01T04:45:20;103322.63;;;13.19;45.04
55656;BME280;41530;52.382;5.270;2023-03-01T04:47:47;103317.41;;;13.17;44.92
55656;BME280;41530;52.382;5.270;2023-03-01T04:50:16;103322.75;;;13.16;44.66
55656;BME280;41530;52.382;5.270;2023-03-01T04:52:43;103321.03;;;13.15;44.85
55656;BME280;41530;52.382;5.270;2023-03-01T04:55:11;103324.56;;;13.14;44.84
55656;BME280;41530;52.382;5.270;2023-03-01T04:57:38;103323.72;;;13.13;44.86
55656;BME280;41530;52.382;5.270;2023-03-01T05:00:06;103312.28;;;13.13;45.00
55656;BME280;41530;52.382;5.270;2023-03-01T05:02:52;103310.63;;;13.10;44.88
55656;BME280;41530;52.382;5.270;2023-03-01T05:07:56;103305.44;;;13.07;44.46
55656;BME280;41530;52.382;5.270;2023-03-01T05:10:24;103309.88;;;13.07;44.84
55656;BME280;41530;52.382;5.270;2023-03-01T05:12:51;103306.47;;;13.05;44.95
55656;BME280;41530;52.382;5.270;2023-03-01T05:15:19;103306.47;;;13.05;44.60
55656;BME280;41530;52.382;5.270;2023-03-01T05:17:49;103293.31;;;13.03;44.84
55656;BME280;41530;52.382;5.270;2023-03-01T05:20:15;103291.66;;;13.01;44.79
55656;BME280;41530;52.382;5.270;2023-03-01T05:22:42;103284.56;;;13.01;44.72
55656;BME280;41530;52.382;5.270;2023-03-01T05:25:09;103277.63;;;12.99;44.90
55656;BME280;41530;52.382;5.270;2023-03-01T05:27:35;103278.50;;;12.99;44.76
55656;BME280;41530;52.382;5.270;2023-03-01T05:30:03;103274.19;;;12.97;44.57
55656;BME280;41530;52.382;5.270;2023-03-01T05:32:47;103277.75;;;12.96;44.46
55656;BME280;41530;52.382;5.270;2023-03-01T05:35:16;103268.09;;;12.95;44.76
55656;BME280;41530;52.382;5.270;2023-03-01T05:37:45;103272.53;;;12.94;44.63
55656;BME280;41530;52.382;5.270;2023-03-01T05:40:14;103263.72;;;12.94;44.58
55656;BME280;41530;52.382;5.270;2023-03-01T05:42:48;103267.28;;;12.93;44.77
55656;BME280;41530;52.382;5.270;2023-03-01T05:45:16;103262.00;;;12.93;44.66
55656;BME280;41530;52.382;5.270;2023-03-01T05:47:44;103261.25;;;12.91;44.71
55656;BME280;41530;52.382;5.270;2023-03-01T05:50:17;103262.16;;;12.90;44.37
55656;BME280;41530;52.382;5.270;2023-03-01T05:52:49;103251.66;;;12.88;44.51
55656;BME280;41530;52.382;5.270;2023-03-01T05:55:18;103254.41;;;12.85;44.68
55656;BME280;41530;52.382;5.270;2023-03-01T05:57:45;103264.06;;;12.86;44.51
55656;BME280;41530;52.382;5.270;2023-03-01T06:00:13;103253.50;;;12.86;44.64
55656;BME280;41530;52.382;5.270;2023-03-01T06:02:40;103254.41;;;12.85;44.56
55656;BME280;41530;52.382;5.270;2023-03-01T06:05:09;103257.13;;;12.83;44.49
55656;BME280;41530;52.382;5.270;2023-03-01T06:07:36;103258.03;;;12.82;44.77
55656;BME280;41530;52.382;5.270;2023-03-01T06:10:05;103257.22;;;12.80;44.49
55656;BME280;41530;52.382;5.270;2023-03-01T06:12:33;103259.00;;;12.80;44.64
55656;BME280;41530;52.382;5.270;2023-03-01T06:15:00;103252.09;;;12.77;44.67
55656;BME280;41530;52.382;5.270;2023-03-01T06:17:29;103248.59;;;12.77;44.52
55656;BME280;41530;52.382;5.270;2023-03-01T06:19:56;103247.69;;;12.78;45.09
55656;BME280;41530;52.382;5.270;2023-03-01T06:22:23;103259.94;;;12.79;45.10
55656;BME280;41530;52.382;5.270;2023-03-01T06:24:50;103255.50;;;12.79;45.01
55656;BME280;41530;52.382;5.270;2023-03-01T06:27:16;103259.00;;;12.80;45.23
55656;BME280;41530;52.382;5.270;2023-03-01T06:29:43;103264.25;;;12.81;45.46
55656;BME280;41530;52.382;5.270;2023-03-01T06:32:09;103260.75;;;12.81;45.32
55656;BME280;41530;52.382;5.270;2023-03-01T06:34:36;103264.25;;;12.81;45.06
55656;BME280;41530;52.382;5.270;2023-03-01T06:37:03;103267.81;;;12.80;45.15
55656;BME280;41530;52.382;5.270;2023-03-01T06:39:32;103273.88;;;12.82;45.26
55656;BME280;41530;52.382;5.270;2023-03-01T06:41:59;103266.88;;;12.81;45.30
55656;BME280;41530;52.382;5.270;2023-03-01T06:44:26;103261.59;;;12.81;45.12
55656;BME280;41530;52.382;5.270;2023-03-01T06:46:53;103261.59;;;12.81;45.34
55656;BME280;41530;52.382;5.270;2023-03-01T06:49:20;103271.31;;;12.81;45.46
55656;BME280;41530;52.382;5.270;2023-03-01T06:51:47;103264.25;;;12.81;45.27
55656;BME280;41530;52.382;5.270;2023-03-01T06:54:14;103261.66;;;12.80;45.32
55656;BME280;41530;52.382;5.270;2023-03-01T06:56:40;103260.03;;;12.77;45.19
55656;BME280;41530;52.382;5.270;2023-03-01T06:59:07;103263.44;;;12.79;45.40
55656;BME280;41530;52.382;5.270;2023-03-01T07:01:33;103266.06;;;12.79;45.35
55656;BME280;41530;52.382;5.270;2023-03-01T07:04:00;103266.94;;;12.80;45.55
55656;BME280;41530;52.382;5.270;2023-03-01T07:06:27;103272.16;;;12.81;45.35
55656;BME280;41530;52.382;5.270;2023-03-01T07:08:53;103274.75;;;12.83;45.42
55656;BME280;41530;52.382;5.270;2023-03-01T07:11:20;103282.63;;;12.84;45.67
55656;BME280;41530;52.382;5.270;2023-03-01T07:13:47;103277.22;;;12.88;45.52
55656;BME280;41530;52.382;5.270;2023-03-01T07:16:13;103277.16;;;12.89;45.86
55656;BME280;41530;52.382;5.270;2023-03-01T07:18:41;103286.72;;;12.92;46.19
55656;BME280;41530;52.382;5.270;2023-03-01T07:21:09;103284.81;;;12.95;45.94
55656;BME280;41530;52.382;5.270;2023-03-01T07:23:37;103292.69;;;12.97;45.66
55656;BME280;41530;52.382;5.270;2023-03-01T07:26:04;103290.09;;;12.95;45.26
55656;BME280;41530;52.382;5.270;2023-03-01T07:28:31;103296.19;;;12.97;45.39
55656;BME280;41530;52.382;5.270;2023-03-01T07:31:02;103290.84;;;12.99;45.56
55656;BME280;41530;52.382;5.270;2023-03-01T07:33:29;103288.19;;;12.99;45.63
55656;BME280;41530;52.382;5.270;2023-03-01T07:36:00;103292.50;;;13.01;45.53
55656;BME280;41530;52.382;5.270;2023-03-01T07:38:28;103276.66;;;13.01;45.42
55656;BME280;41530;52.382;5.270;2023-03-01T07:41:00;103276.59;;;13.03;45.28
55656;BME280;41530;52.382;5.270;2023-03-01T07:43:28;103277.44;;;13.03;45.65
55656;BME280;41530;52.382;5.270;2023-03-01T07:45:54;103280.94;;;13.04;45.65
55656;BME280;41530;52.382;5.270;2023-03-01T07:48:24;103292.38;;;13.04;45.27
55656;BME280;41530;52.382;5.270;2023-03-01T07:50:50;103281.81;;;13.04;45.23
55656;BME280;41530;52.382;5.270;2023-03-01T07:53:17;103294.94;;;13.06;45.29
55656;BME280;41530;52.382;5.270;2023-03-01T07:55:43;103288.72;;;13.07;45.34
55656;BME280;41530;52.382;5.270;2023-03-01T07:58:10;103291.31;;;13.08;45.50
55656;BME280;41530;52.382;5.270;2023-03-01T08:00:36;103285.09;;;13.09;45.23
55656;BME280;41530;52.382;5.270;2023-03-01T08:03:03;103276.25;;;13.10;45.31
55656;BME280;41530;52.382;5.270;2023-03-01T08:05:29;103287.56;;;13.14;45.21
55656;BME280;41530;52.382;5.270;2023-03-01T08:07:56;103283.13;;;13.16;45.00
55656;BME280;41530;52.382;5.270;2023-03-01T08:10:23;103276.97;;;13.15;45.09
55656;BME280;41530;52.382;5.270;2023-03-01T08:12:51;103282.97;;;13.19;45.23
55656;BME280;41530;52.382;5.270;2023-03-01T08:15:18;103270.56;;;13.21;45.04
55656;BME280;41530;52.382;5.270;2023-03-01T08:17:45;103270.44;;;13.24;45.16
55656;BME280;41530;52.382;5.270;2023-03-01T08:20:12;103283.47;;;13.29;45.04
55656;BME280;41530;52.382;5.270;2023-03-01T08:22:39;103270.88;;;13.34;45.09
55656;BME280;41530;52.382;5.270;2023-03-01T08:25:05;103274.16;;;13.40;45.06
55656;BME280;41530;52.382;5.270;2023-03-01T08:27:32;103279.09;;;13.48;44.92
55656;BME280;41530;52.382;5.270;2023-03-01T08:29:59;103283.22;;;13.55;44.88
55656;BME280;41530;52.382;5.270;2023-03-01T08:32:25;103277.69;;;13.60;44.70
55656;BME280;41530;52.382;5.270;2023-03-01T08:34:52;103272.16;;;13.66;44.71
55656;BME280;41530;52.382;5.270;2023-03-01T08:37:19;103272.81;;;13.71;44.63
55656;BME280;41530;52.382;5.270;2023-03-01T08:39:46;103272.66;;;13.74;44.51
55656;BME280;41530;52.382;5.270;2023-03-01T08:42:13;103271.53;;;13.79;44.67
55656;BME280;41530;52.382;5.270;2023-03-01T08:44:39;103274.91;;;13.83;44.55
55656;BME280;41530;52.382;5.270;2023-03-01T08:47:06;103272.22;;;13.84;44.44
55656;BME280;41530;52.382;5.270;2023-03-01T08:49:32;103270.19;;;13.89;44.49
55656;BME280;41530;52.382;5.270;2023-03-01T08:51:59;103273.50;;;13.95;44.31
55656;BME280;41530;52.382;5.270;2023-03-01T08:54:26;103273.38;;;13.98;44.23
55656;BME280;41530;52.382;5.270;2023-03-01T08:56:52;103263.41;;;14.03;44.40
55656;BME280;41530;52.382;5.270;2023-03-01T08:59:19;103256.19;;;14.06;44.32
55656;BME280;41530;52.382;5.270;2023-03-01T09:01:46;103250.78;;;14.09;44.25
55656;BME280;41530;52.382;5.270;2023-03-01T09:04:14;103251.56;;;14.11;44.12
55656;BME280;41530;52.382;5.270;2023-03-01T09:06:40;103249.63;;;14.15;44.36
55656;BME280;41530;52.382;5.270;2023-03-01T09:09:13;103235.44;;;14.16;44.01
55656;BME280;41530;52.382;5.270;2023-03-01T09:11:41;103234.44;;;14.18;44.13
55656;BME280;41530;52.382;5.270;2023-03-01T09:14:09;103236.97;;;14.21;44.14
55656;BME280;41530;52.382;5.270;2023-03-01T09:16:35;103226.84;;;14.30;44.31
55656;BME280;41530;52.382;5.270;2023-03-01T09:19:03;103235.19;;;14.41;44.04
55656;BME280;41530;52.382;5.270;2023-03-01T09:21:30;103223.31;;;14.49;43.98
55656;BME280;41530;52.382;5.270;2023-03-01T09:24:12;103216.69;;;14.58;43.38
55656;BME280;41530;52.382;5.270;2023-03-01T09:26:39;103215.44;;;14.65;43.77
55656;BME280;41530;52.382;5.270;2023-03-01T09:29:06;103220.38;;;14.73;43.71
55656;BME280;41530;52.382;5.270;2023-03-01T09:31:33;103215.63;;;14.79;43.55
55656;BME280;41530;52.382;5.270;2023-03-01T09:33:59;103217.97;;;14.85;43.66
55656;BME280;41530;52.382;5.270;2023-03-01T09:36:26;103217.91;;;14.87;43.56
55656;BME280;41530;52.382;5.270;2023-03-01T09:38:52;103218.63;;;14.90;43.28
55656;BME280;41530;52.382;5.270;2023-03-01T09:46:55;103215.41;;;14.84;43.90
55656;BME280;41530;52.382;5.270;2023-03-01T09:49:31;103220.69;;;14.84;43.33
55656;BME280;41530;52.382;5.270;2023-03-01T09:54:27;103220.00;;;14.80;44.16
55656;BME280;41530;52.382;5.270;2023-03-01T09:57:01;103201.91;;;14.71;44.30
55656;BME280;41530;52.382;5.270;2023-03-01T10:10:37;103214.28;;;14.71;44.71
55656;BME280;41530;52.382;5.270;2023-03-01T10:13:37;103210.00;;;14.68;44.69
55656;BME280;41530;52.382;5.270;2023-03-01T10:16:34;103205.63;;;14.67;45.00
55656;BME280;41530;52.382;5.270;2023-03-01T10:19:05;103206.75;;;14.63;45.46
55656;BME280;41530;52.382;5.270;2023-03-01T10:21:41;103209.47;;;14.61;45.45
55656;BME280;41530;52.382;5.270;2023-03-01T10:24:14;103204.22;;;14.60;45.48
55656;BME280;41530;52.382;5.270;2023-03-01T10:29:15;103204.38;;;14.57;45.82
55656;BME280;41530;52.382;5.270;2023-03-01T10:31:47;103202.66;;;14.56;45.64
55656;BME280;41530;52.382;5.270;2023-03-01T10:34:19;103197.34;;;14.56;46.38
55656;BME280;41530;52.382;5.270;2023-03-01T10:36:49;103194.56;;;14.59;46.67
55656;BME280;41530;52.382;5.270;2023-03-01T10:39:21;103194.41;;;14.62;47.05
55656;BME280;41530;52.382;5.270;2023-03-01T10:44:43;103190.53;;;14.69;47.31
55656;BME280;41530;52.382;5.270;2023-03-01T10:47:19;103187.78;;;14.71;47.54
55656;BME280;41530;52.382;5.270;2023-03-01T10:50:02;103182.50;;;14.71;47.12
55656;BME280;41530;52.382;5.270;2023-03-01T10:52:34;103177.13;;;14.72;47.74
55656;BME280;41530;52.382;5.270;2023-03-01T10:55:19;103184.06;;;14.75;48.86
55656;BME280;41530;52.382;5.270;2023-03-01T11:03:26;103152.19;;;14.76;48.25
55656;BME280;41530;52.382;5.270;2023-03-01T11:08:36;103155.78;;;14.75;48.16
55656;BME280;41530;52.382;5.270;2023-03-01T11:11:26;103154.91;;;14.75;48.49
55656;BME280;41530;52.382;5.270;2023-03-01T11:18:59;103148.13;;;14.69;49.03
55656;BME280;41530;52.382;5.270;2023-03-01T11:21:28;103149.00;;;14.70;49.06
55656;BME280;41530;52.382;5.270;2023-03-01T11:24:00;103140.19;;;14.69;48.65
55656;BME280;41530;52.382;5.270;2023-03-01T11:26:28;103134.03;;;14.69;48.69
55656;BME280;41530;52.382;5.270;2023-03-01T11:29:01;103138.53;;;14.67;48.72
55656;BME280;41530;52.382;5.270;2023-03-01T11:31:30;103132.47;;;14.65;48.79
55656;BME280;41530;52.382;5.270;2023-03-01T11:45:12;103118.59;;;14.59;49.05
55656;BME280;41530;52.382;5.270;2023-03-01T11:47:55;103117.66;;;14.60;49.55
55656;BME280;41530;52.382;5.270;2023-03-01T11:50:49;103118.59;;;14.59;49.85
55656;BME280;41530;52.382;5.270;2023-03-01T11:56:39;103102.69;;;14.59;48.48
55656;BME280;41530;52.382;5.270;2023-03-01T12:07:29;103113.38;;;14.58;50.27
55656;BME280;41530;52.382;5.270;2023-03-01T12:12:52;103114.22;;;14.58;48.97
55656;BME280;41530;52.382;5.270;2023-03-01T12:15:50;103112.44;;;14.59;49.43
55656;BME280;41530;52.382;5.270;2023-03-01T12:21:30;103089.47;;;14.59;48.72
55656;BME280;41530;52.382;5.270;2023-03-01T12:26:44;103080.50;;;14.62;48.61
55656;BME280;41530;52.382;5.270;2023-03-01T12:29:26;103072.56;;;14.62;49.28
55656;BME280;41530;52.382;5.270;2023-03-01T12:50:49;103059.31;;;14.62;49.63
55656;BME280;41530;52.382;5.270;2023-03-01T12:55:47;103061.78;;;14.65;49.99
55656;BME280;41530;52.382;5.270;2023-03-01T13:01:16;103062.63;;;14.66;50.01
55656;BME280;41530;52.382;5.270;2023-03-01T13:11:50;103048.38;;;14.68;50.30
55656;BME280;41530;52.382;5.270;2023-03-01T13:16:47;103038.63;;;14.69;50.02
55656;BME280;41530;52.382;5.270;2023-03-01T13:19:26;103033.41;;;14.67;50.34
55656;BME280;41530;52.382;5.270;2023-03-01T13:21:55;103033.34;;;14.69;50.13
55656;BME280;41530;52.382;5.270;2023-03-01T13:24:37;103027.97;;;14.70;49.90
55656;BME280;41530;52.382;5.270;2023-03-01T13:27:09;103023.53;;;14.71;50.03
55656;BME280;41530;52.382;5.270;2023-03-01T13:29:51;103025.25;;;14.72;50.47
55656;BME280;41530;52.382;5.270;2023-03-01T13:32:24;103018.16;;;14.72;50.08
55656;BME280;41530;52.382;5.270;2023-03-01T13:37:41;103006.63;;;14.73;49.93
55656;BME280;41530;52.382;5.270;2023-03-01T13:42:55;103005.69;;;14.74;49.83
55656;BME280;41530;52.382;5.270;2023-03-01T13:45:41;102993.28;;;14.75;49.93
55656;BME280;41530;52.382;5.270;2023-03-01T13:48:16;102991.50;;;14.75;49.65
55656;BME280;41530;52.382;5.270;2023-03-01T13:50:48;102981.69;;;14.77;49.63
55656;BME280;41530;52.382;5.270;2023-03-01T13:53:19;102979.88;;;14.78;49.85
55656;BME280;41530;52.382;5.270;2023-03-01T13:55:49;102976.28;;;14.79;50.10
55656;BME280;41530;52.382;5.270;2023-03-01T13:58:31;102966.53;;;14.79;49.77
55656;BME280;41530;52.382;5.270;2023-03-01T14:03:28;102965.50;;;14.82;49.57
55656;BME280;41530;52.382;5.270;2023-03-01T14:08:39;102969.97;;;14.81;49.99
55656;BME280;41530;52.382;5.270;2023-03-01T14:19:43;102951.09;;;14.87;50.13
55656;BME280;41530;52.382;5.270;2023-03-01T14:25:02;102947.41;;;14.90;49.41
55656;BME280;41530;52.382;5.270;2023-03-01T14:27:35;102930.66;;;14.89;49.72
55656;BME280;41530;52.382;5.270;2023-03-01T14:30:19;102926.09;;;14.91;50.18
55656;BME280;41530;52.382;5.270;2023-03-01T14:32:55;102932.19;;;14.93;49.47
55656;BME280;41530;52.382;5.270;2023-03-01T14:35:33;102924.22;;;14.93;49.49
55656;BME280;41530;52.382;5.270;2023-03-01T14:38:01;102917.13;;;14.94;49.54
55656;BME280;41530;52.382;5.270;2023-03-01T14:40:37;102913.56;;;14.95;49.78
55656;BME280;41530;52.382;5.270;2023-03-01T14:43:13;102910.81;;;14.96;49.37
55656;BME280;41530;52.382;5.270;2023-03-01T14:45:49;102909.81;;;14.99;49.60
55656;BME280;41530;52.382;5.270;2023-03-01T14:48:17;102906.22;;;15.00;49.52
55656;BME280;41530;52.382;5.270;2023-03-01T14:50:44;102899.97;;;15.01;49.15
55656;BME280;41530;52.382;5.270;2023-03-01T14:53:24;102895.53;;;15.02;49.72
55656;BME280;41530;52.382;5.270;2023-03-01T14:55:56;102896.31;;;15.04;49.44
55656;BME280;41530;52.382;5.270;2023-03-01T14:58:26;102894.50;;;15.04;49.61
55656;BME280;41530;52.382;5.270;2023-03-01T15:00:58;102894.41;;;15.06;49.32
55656;BME280;41530;52.382;5.270;2023-03-01T15:03:35;102889.88;;;15.08;49.13
55656;BME280;41530;52.382;5.270;2023-03-01T15:06:07;102884.47;;;15.09;49.53
55656;BME280;41530;52.382;5.270;2023-03-01T15:08:35;102883.63;;;15.09;49.16
55656;BME280;41530;52.382;5.270;2023-03-01T15:13:34;102888.75;;;15.12;49.36
55656;BME280;41530;52.382;5.270;2023-03-01T15:16:12;102881.66;;;15.12;49.16
55656;BME280;41530;52.382;5.270;2023-03-01T15:18:45;102889.53;;;15.14;48.94
55656;BME280;41530;52.382;5.270;2023-03-01T15:21:24;102879.78;;;15.14;48.93
55656;BME280;41530;52.382;5.270;2023-03-01T15:24:05;102868.25;;;15.15;48.99
55656;BME280;41530;52.382;5.270;2023-03-01T15:26:37;102867.38;;;15.15;48.73
55656;BME280;41530;52.382;5.270;2023-03-01T15:29:15;102864.66;;;15.16;49.16
55656;BME280;41530;52.382;5.270;2023-03-01T15:31:52;102872.53;;;15.18;48.99
55656;BME280;41530;52.382;5.270;2023-03-01T15:36:51;102876.84;;;15.19;48.92
55656;BME280;41530;52.382;5.270;2023-03-01T15:41:50;102882.06;;;15.20;48.95
55656;BME280;41530;52.382;5.270;2023-03-01T15:44:25;102882.94;;;15.21;49.18
55656;BME280;41530;52.382;5.270;2023-03-01T15:47:01;102882.00;;;15.22;49.09
55656;BME280;41530;52.382;5.270;2023-03-01T15:51:57;102877.47;;;15.24;48.72